sensor_id;sensor_type;location;lat;lon;timestamp;noise_LAeq;noise_LA_min;noise_LA_max;noise_LA01;noise_LA95
69609;Laerm;56815;52.320;4.858;2023-03-31T00:00:05;32.19;29.52;34.45;;
69609;Laerm;56815;52.320;4.858;2023-03-31T00:00:20;32.49;30.55;36.05;;
69609;Laerm;56815;52.320;4.858;2023-03-31T00:00:31;32.32;30.15;36.14;;
69609;Laerm;56815;52.320;4.858;2023-03-31T00:00:42;32.66;30.31;38.02;;
69609;Laerm;56815;52.320;4.858;2023-03-31T00:00:53;31.67;29.87;38.32;;
69609;Laerm;56815;52.320;4.858;2023-03-31T00:01:06;31.09;29.54;35.04;;
69609;Laerm;56815;52.320;4.858;2023-03-31T00:01:17;31.42;29.54;33.49;;
69609;Laerm;56815;52.320;4.858;2023-03-31T00:01:28;31.54;29.69;33.84;;
69609;Laerm;56815;52.320;4.858;2023-03-31T00:01:38;31.32;29.13;33.22;;
69609;Laerm;56815;52.320;4.858;2023-03-31T00:01:52;31.87;30.07;34.17;;
69609;Laerm;56815;52.320;4.858;2023-03-31T00:02:04;31.60;29.53;34.76;;
69609;Laerm;56815;52.320;4.858;2023-03-31T00:02:22;31.87;29.96;35.61;;
69609;Laerm;56815;52.320;4.858;2023-03-31T00:02:32;31.32;29.44;33.73;;
69609;Laerm;56815;52.320;4.858;2023-03-31T00:02:42;31.06;29.72;33.34;;
69609;Laerm;56815;52.320;4.858;2023-03-31T00:02:53;31.41;29.80;35.12;;
69609;Laerm;56815;52.320;4.858;2023-03-31T00:03:05;32.23;30.32;35.32;;
69609;Laerm;56815;52.320;4.858;2023-03-31T00:03:19;32.58;30.67;35.37;;
69609;Laerm;56815;52.320;4.858;2023-03-31T00:03:33;31.71;30.25;33.85;;
69609;Laerm;56815;52.320;4.858;2023-03-31T00:03:47;32.75;30.63;36.49;;
69609;Laerm;56815;52.320;4.858;2023-03-31T00:03:57;31.77;30.07;33.86;;
69609;Laerm;56815;52.320;4.858;2023-03-31T00:04:13;32.45;30.37;34.76;;
69609;Laerm;56815;52.320;4.858;2023-03-31T00:04:24;31.73;30.17;33.46;;
69609;Laerm;56815;52.320;4.858;2023-03-31T00:04:35;33.51;29.83;38.45;;
69609;Laerm;56815;52.320;4.858;2023-03-31T00:04:45;31.95;30.17;34.80;;
69609;Laerm;56815;52.320;4.858;2023-03-31T00:05:01;33.55;30.14;37.04;;
69609;Laerm;56815;52.320;4.858;2023-03-31T00:05:11;32.54;30.48;34.64;;
69609;Laerm;56815;52.320;4.858;2023-03-31T00:05:26;32.12;30.17;34.17;;
69609;Laerm;56815;52.320;4.858;2023-03-31T00:05:37;32.03;30.26;33.68;;
69609;Laerm;56815;52.320;4.858;2023-03-31T00:05:47;32.94;30.83;35.88;;
69609;Laerm;56815;52.320;4.858;2023-03-31T00:05:58;33.44;31.20;36.06;;
69609;Laerm;56815;52.320;4.858;2023-03-31T00:06:09;32.35;30.02;34.32;;
69609;Laerm;56815;52.320;4.858;2023-03-31T00:06:20;32.77;30.58;35.17;;
69609;Laerm;56815;52.320;4.858;2023-03-31T00:06:31;32.09;30.55;33.80;;
69609;Laerm;56815;52.320;4.858;2023-03-31T00:06:46;32.32;29.88;38.61;;
69609;Laerm;56815;52.320;4.858;2023-03-31T00:06:57;31.81;29.99;33.95;;
69609;Laerm;56815;52.320;4.858;2023-03-31T00:07:07;31.75;29.91;33.58;;
69609;Laerm;56815;52.320;4.858;2023-03-31T00:07:19;32.38;30.16;34.41;;
69609;Laerm;56815;52.320;4.858;2023-03-31T00:07:31;32.23;30.22;34.90;;
69609;Laerm;56815;52.320;4.858;2023-03-31T00:07:41;32.86;31.05;34.98;;
69609;Laerm;56815;52.320;4.858;2023-03-31T00:07:53;32.54;29.66;34.84;;
69609;Laerm;56815;52.320;4.858;2023-03-31T00:08:04;31.71;30.06;33.36;;
69609;Laerm;56815;52.320;4.858;2023-03-31T00:08:16;31.48;29.60;35.05;;
69609;Laerm;56815;52.320;4.858;2023-03-31T00:08:27;31.72;29.81;33.79;;
69609;Laerm;56815;52.320;4.858;2023-03-31T00:08:38;32.73;30.22;35.52;;
69609;Laerm;56815;52.320;4.858;2023-03-31T00:08:49;34.43;32.01;39.28;;
69609;Laerm;56815;52.320;4.858;2023-03-31T00:09:00;33.16;30.90;35.91;;
69609;Laerm;56815;52.320;4.858;2023-03-31T00:09:14;31.99;30.09;33.91;;
69609;Laerm;56815;52.320;4.858;2023-03-31T00:09:27;31.63;29.15;34.59;;
69609;Laerm;56815;52.320;4.858;2023-03-31T00:09:39;32.71;30.28;41.14;;
69609;Laerm;56815;52.320;4.858;2023-03-31T00:09:51;31.61;29.87;33.50;;
69609;Laerm;56815;52.320;4.858;2023-03-31T00:10:04;32.25;29.61;36.03;;
69609;Laerm;56815;52.320;4.858;2023-03-31T00:10:14;31.10;29.51;32.70;;
69609;Laerm;56815;52.320;4.858;2023-03-31T00:10:28;30.81;28.80;32.55;;
69609;Laerm;56815;52.320;4.858;2023-03-31T00:10:43;30.66;28.71;34.86;;
69609;Laerm;56815;52.320;4.858;2023-03-31T00:10:57;34.08;31.50;37.67;;
69609;Laerm;56815;52.320;4.858;2023-03-31T00:11:08;32.35;30.17;35.04;;
69609;Laerm;56815;52.320;4.858;2023-03-31T00:11:19;31.37;29.75;33.21;;
69609;Laerm;56815;52.320;4.858;2023-03-31T00:11:30;30.54;28.97;34.23;;
69609;Laerm;56815;52.320;4.858;2023-03-31T00:11:41;30.97;29.02;33.51;;
69609;Laerm;56815;52.320;4.858;2023-03-31T00:11:51;34.66;29.88;47.80;;
69609;Laerm;56815;52.320;4.858;2023-03-31T00:12:01;34.69;29.84;47.06;;
69609;Laerm;56815;52.320;4.858;2023-03-31T00:12:12;31.33;29.48;35.02;;
69609;Laerm;56815;52.320;4.858;2023-03-31T00:12:23;31.34;29.63;37.40;;
69609;Laerm;56815;52.320;4.858;2023-03-31T00:12:33;31.70;29.77;39.37;;
69609;Laerm;56815;52.320;4.858;2023-03-31T00:12:43;31.87;29.45;43.07;;
69609;Laerm;56815;52.320;4.858;2023-03-31T00:12:54;33.25;29.45;50.05;;
69609;Laerm;56815;52.320;4.858;2023-03-31T00:13:04;32.12;29.65;44.12;;
69609;Laerm;56815;52.320;4.858;2023-03-31T00:13:14;32.56;30.23;39.06;;
69609;Laerm;56815;52.320;4.858;2023-03-31T00:13:25;34.14;29.86;38.94;;
69609;Laerm;56815;52.320;4.858;2023-03-31T00:13:36;39.54;32.14;45.77;;
69609;Laerm;56815;52.320;4.858;2023-03-31T00:13:46;33.97;31.63;36.44;;
69609;Laerm;56815;52.320;4.858;2023-03-31T00:13:57;31.89;30.31;33.41;;
69609;Laerm;56815;52.320;4.858;2023-03-31T00:14:07;31.33;29.60;33.07;;
69609;Laerm;56815;52.320;4.858;2023-03-31T00:14:18;32.32;30.26;35.08;;
69609;Laerm;56815;52.320;4.858;2023-03-31T00:14:29;32.29;30.11;35.75;;
69609;Laerm;56815;52.320;4.858;2023-03-31T00:14:39;31.89;30.05;34.62;;
69609;Laerm;56815;52.320;4.858;2023-03-31T00:14:50;31.83;29.62;34.24;;
69609;Laerm;56815;52.320;4.858;2023-03-31T00:15:00;31.43;29.98;33.31;;
69609;Laerm;56815;52.320;4.858;2023-03-31T00:15:11;31.51;30.05;34.31;;
69609;Laerm;56815;52.320;4.858;2023-03-31T00:15:21;31.61;29.80;36.33;;
69609;Laerm;56815;52.320;4.858;2023-03-31T00:15:32;31.63;29.95;34.04;;
69609;Laerm;56815;52.320;4.858;2023-03-31T00:15:42;33.04;31.10;35.62;;
69609;Laerm;56815;52.320;4.858;2023-03-31T00:15:56;32.07;29.88;37.29;;
69609;Laerm;56815;52.320;4.858;2023-03-31T00:16:07;32.59;30.12;35.07;;
69609;Laerm;56815;52.320;4.858;2023-03-31T00:16:18;32.07;30.31;36.65;;
69609;Laerm;56815;52.320;4.858;2023-03-31T00:16:28;31.51;29.96;33.56;;
69609;Laerm;56815;52.320;4.858;2023-03-31T00:16:38;30.98;29.60;32.55;;
69609;Laerm;56815;52.320;4.858;2023-03-31T00:16:49;31.31;29.72;33.36;;
69609;Laerm;56815;52.320;4.858;2023-03-31T00:16:59;32.02;30.03;36.80;;
69609;Laerm;56815;52.320;4.858;2023-03-31T00:17:11;31.63;30.02;33.31;;
69609;Laerm;56815;52.320;4.858;2023-03-31T00:17:21;31.93;29.77;33.75;;
69609;Laerm;56815;52.320;4.858;2023-03-31T00:17:31;32.02;30.18;34.22;;
69609;Laerm;56815;52.320;4.858;2023-03-31T00:17:42;31.99;30.35;33.82;;
69609;Laerm;56815;52.320;4.858;2023-03-31T00:17:52;31.76;29.92;34.02;;
69609;Laerm;56815;52.320;4.858;2023-03-31T00:18:03;31.23;29.69;34.27;;
69609;Laerm;56815;52.320;4.858;2023-03-31T00:18:13;31.86;30.03;33.46;;
69609;Laerm;56815;52.320;4.858;2023-03-31T00:18:23;31.56;29.89;33.65;;
69609;Laerm;56815;52.320;4.858;2023-03-31T00:18:35;31.47;30.08;33.23;;
69609;Laerm;56815;52.320;4.858;2023-03-31T00:18:47;31.46;30.00;33.68;;
69609;Laerm;56815;52.320;4.858;2023-03-31T00:18:59;31.24;29.56;32.79;;
69609;Laerm;56815;52.320;4.858;2023-03-31T00:19:11;32.28;29.26;38.11;;
69609;Laerm;56815;52.320;4.858;2023-03-31T00:19:29;31.29;29.29;37.13;;
69609;Laerm;56815;52.320;4.858;2023-03-31T00:19:42;31.31;29.28;38.17;;
69609;Laerm;56815;52.320;4.858;2023-03-31T00:19:52;31.56;29.53;34.52;;
69609;Laerm;56815;52.320;4.858;2023-03-31T00:20:02;32.53;30.23;35.11;;
69609;Laerm;56815;52.320;4.858;2023-03-31T00:20:14;36.85;30.09;57.30;;
69609;Laerm;56815;52.320;4.858;2023-03-31T00:20:26;45.56;30.40;65.18;;
69609;Laerm;56815;52.320;4.858;2023-03-31T00:20:36;32.75;30.04;42.67;;
69609;Laerm;56815;52.320;4.858;2023-03-31T00:20:47;31.86;29.76;35.78;;
69609;Laerm;56815;52.320;4.858;2023-03-31T00:21:13;31.67;29.52;38.56;;
69609;Laerm;56815;52.320;4.858;2023-03-31T00:21:33;32.42;29.44;44.56;;
69609;Laerm;56815;52.320;4.858;2023-03-31T00:21:44;31.59;30.12;33.41;;
69609;Laerm;56815;52.320;4.858;2023-03-31T00:21:54;33.16;30.18;35.43;;
69609;Laerm;56815;52.320;4.858;2023-03-31T00:22:04;33.36;30.48;41.79;;
69609;Laerm;56815;52.320;4.858;2023-03-31T00:22:15;32.67;30.00;39.91;;
69609;Laerm;56815;52.320;4.858;2023-03-31T00:22:31;32.00;29.39;42.83;;
69609;Laerm;56815;52.320;4.858;2023-03-31T00:22:41;32.55;29.83;40.19;;
69609;Laerm;56815;52.320;4.858;2023-03-31T00:22:55;33.14;30.46;43.09;;
69609;Laerm;56815;52.320;4.858;2023-03-31T00:23:06;31.57;29.81;34.15;;
69609;Laerm;56815;52.320;4.858;2023-03-31T00:23:19;35.08;29.64;41.07;;
69609;Laerm;56815;52.320;4.858;2023-03-31T00:23:37;35.90;30.53;47.19;;
69609;Laerm;56815;52.320;4.858;2023-03-31T00:23:47;33.25;30.03;36.96;;
69609;Laerm;56815;52.320;4.858;2023-03-31T00:24:01;37.07;29.38;52.14;;
69609;Laerm;56815;52.320;4.858;2023-03-31T00:24:12;35.63;29.64;40.99;;
69609;Laerm;56815;52.320;4.858;2023-03-31T00:24:23;33.63;28.93;53.70;;
69609;Laerm;56815;52.320;4.858;2023-03-31T00:24:33;32.30;29.32;40.92;;
69609;Laerm;56815;52.320;4.858;2023-03-31T00:24:44;32.04;29.40;40.86;;
69609;Laerm;56815;52.320;4.858;2023-03-31T00:24:55;32.48;29.92;35.02;;
69609;Laerm;56815;52.320;4.858;2023-03-31T00:25:05;37.76;29.36;53.44;;
69609;Laerm;56815;52.320;4.858;2023-03-31T00:25:16;31.65;29.62;35.10;;
69609;Laerm;56815;52.320;4.858;2023-03-31T00:25:26;31.52;30.01;38.03;;
69609;Laerm;56815;52.320;4.858;2023-03-31T00:25:39;32.92;30.49;42.18;;
69609;Laerm;56815;52.320;4.858;2023-03-31T00:25:53;31.17;29.38;33.69;;
69609;Laerm;56815;52.320;4.858;2023-03-31T00:26:03;32.72;29.87;38.58;;
69609;Laerm;56815;52.320;4.858;2023-03-31T00:26:15;38.53;30.31;54.45;;
69609;Laerm;56815;52.320;4.858;2023-03-31T00:26:25;48.08;29.68;65.90;;
69609;Laerm;56815;52.320;4.858;2023-03-31T00:26:37;33.46;30.36;36.70;;
69609;Laerm;56815;52.320;4.858;2023-03-31T00:26:47;33.69;31.32;36.42;;
69609;Laerm;56815;52.320;4.858;2023-03-31T00:26:58;32.69;30.18;37.09;;
69609;Laerm;56815;52.320;4.858;2023-03-31T00:27:08;31.46;29.53;33.69;;
69609;Laerm;56815;52.320;4.858;2023-03-31T00:27:20;31.06;29.27;33.77;;
69609;Laerm;56815;52.320;4.858;2023-03-31T00:27:30;30.86;29.39;32.54;;
69609;Laerm;56815;52.320;4.858;2023-03-31T00:27:41;30.64;28.99;32.15;;
69609;Laerm;56815;52.320;4.858;2023-03-31T00:27:53;30.87;29.29;32.36;;
69609;Laerm;56815;52.320;4.858;2023-03-31T00:28:03;31.63;29.96;33.05;;
69609;Laerm;56815;52.320;4.858;2023-03-31T00:28:14;31.41;29.75;34.78;;
69609;Laerm;56815;52.320;4.858;2023-03-31T00:28:24;31.36;29.85;33.04;;
69609;Laerm;56815;52.320;4.858;2023-03-31T00:28:34;31.04;29.31;32.68;;
69609;Laerm;56815;52.320;4.858;2023-03-31T00:28:45;31.01;29.26;32.90;;
69609;Laerm;56815;52.320;4.858;2023-03-31T00:28:55;31.21;29.27;33.15;;
69609;Laerm;56815;52.320;4.858;2023-03-31T00:29:07;30.90;29.51;32.31;;
69609;Laerm;56815;52.320;4.858;2023-03-31T00:29:17;30.93;29.22;34.84;;
69609;Laerm;56815;52.320;4.858;2023-03-31T00:29:27;30.99;29.25;33.06;;
69609;Laerm;56815;52.320;4.858;2023-03-31T00:29:38;32.01;29.12;39.62;;
69609;Laerm;56815;52.320;4.858;2023-03-31T00:29:50;30.87;28.75;33.37;;
69609;Laerm;56815;52.320;4.858;2023-03-31T00:30:02;31.78;29.75;33.79;;
69609;Laerm;56815;52.320;4.858;2023-03-31T00:30:12;31.46;29.60;33.73;;
69609;Laerm;56815;52.320;4.858;2023-03-31T00:30:23;31.70;30.09;33.35;;
69609;Laerm;56815;52.320;4.858;2023-03-31T00:30:33;31.80;30.07;37.49;;
69609;Laerm;56815;52.320;4.858;2023-03-31T00:30:43;31.73;29.60;36.45;;
69609;Laerm;56815;52.320;4.858;2023-03-31T00:30:58;31.47;29.62;33.53;;
69609;Laerm;56815;52.320;4.858;2023-03-31T00:31:09;31.34;29.46;34.08;;
69609;Laerm;56815;52.320;4.858;2023-03-31T00:31:19;32.58;29.53;37.58;;
69609;Laerm;56815;52.320;4.858;2023-03-31T00:31:31;35.40;30.64;41.77;;
69609;Laerm;56815;52.320;4.858;2023-03-31T00:31:41;34.54;30.30;39.84;;
69609;Laerm;56815;52.320;4.858;2023-03-31T00:31:51;34.67;31.25;42.42;;
69609;Laerm;56815;52.320;4.858;2023-03-31T00:32:02;34.71;31.26;39.54;;
69609;Laerm;56815;52.320;4.858;2023-03-31T00:32:12;34.84;30.77;40.82;;
69609;Laerm;56815;52.320;4.858;2023-03-31T00:32:23;36.14;32.30;43.44;;
69609;Laerm;56815;52.320;4.858;2023-03-31T00:32:33;35.66;32.49;41.82;;
69609;Laerm;56815;52.320;4.858;2023-03-31T00:32:44;35.09;32.36;37.94;;
69609;Laerm;56815;52.320;4.858;2023-03-31T00:32:54;35.49;31.97;41.79;;
69609;Laerm;56815;52.320;4.858;2023-03-31T00:33:05;34.00;31.03;40.45;;
69609;Laerm;56815;52.320;4.858;2023-03-31T00:33:16;34.02;30.45;39.43;;
69609;Laerm;56815;52.320;4.858;2023-03-31T00:33:26;33.02;30.83;36.60;;
69609;Laerm;56815;52.320;4.858;2023-03-31T00:33:36;33.30;31.29;35.50;;
69609;Laerm;56815;52.320;4.858;2023-03-31T00:33:47;32.86;31.18;35.20;;
69609;Laerm;56815;52.320;4.858;2023-03-31T00:33:57;32.52;30.34;35.59;;
69609;Laerm;56815;52.320;4.858;2023-03-31T00:34:08;31.28;29.04;33.22;;
69609;Laerm;56815;52.320;4.858;2023-03-31T00:34:18;31.13;29.49;35.55;;
69609;Laerm;56815;52.320;4.858;2023-03-31T00:34:28;31.92;29.94;34.16;;
69609;Laerm;56815;52.320;4.858;2023-03-31T00:34:39;31.86;29.39;33.56;;
69609;Laerm;56815;52.320;4.858;2023-03-31T00:34:50;32.53;30.80;34.87;;
69609;Laerm;56815;52.320;4.858;2023-03-31T00:35:00;32.82;30.34;39.64;;
69609;Laerm;56815;52.320;4.858;2023-03-31T00:35:11;32.66;30.05;42.80;;
69609;Laerm;56815;52.320;4.858;2023-03-31T00:35:21;33.06;29.71;44.49;;
69609;Laerm;56815;52.320;4.858;2023-03-31T00:35:34;32.69;29.81;41.32;;
69609;Laerm;56815;52.320;4.858;2023-03-31T00:35:44;32.02;29.49;40.67;;
69609;Laerm;56815;52.320;4.858;2023-03-31T00:35:55;32.46;29.50;45.49;;
69609;Laerm;56815;52.320;4.858;2023-03-31T00:36:05;33.02;29.96;44.08;;
69609;Laerm;56815;52.320;4.858;2023-03-31T00:36:16;32.11;30.24;33.78;;
69609;Laerm;56815;52.320;4.858;2023-03-31T00:36:38;33.06;30.73;35.91;;
69609;Laerm;56815;52.320;4.858;2023-03-31T00:36:56;31.55;29.96;33.52;;
69609;Laerm;56815;52.320;4.858;2023-03-31T00:37:07;32.14;30.37;35.23;;
69609;Laerm;56815;52.320;4.858;2023-03-31T00:37:18;31.81;29.75;33.98;;
69609;Laerm;56815;52.320;4.858;2023-03-31T00:37:29;31.91;29.99;34.61;;
69609;Laerm;56815;52.320;4.858;2023-03-31T00:37:39;32.53;29.45;39.22;;
69609;Laerm;56815;52.320;4.858;2023-03-31T00:37:52;31.55;29.44;34.70;;
69609;Laerm;56815;52.320;4.858;2023-03-31T00:38:03;32.84;30.67;38.57;;
69609;Laerm;56815;52.320;4.858;2023-03-31T00:38:13;33.33;31.16;35.46;;
69609;Laerm;56815;52.320;4.858;2023-03-31T00:38:23;32.83;29.97;35.44;;
69609;Laerm;56815;52.320;4.858;2023-03-31T00:38:34;32.06;30.03;34.80;;
69609;Laerm;56815;52.320;4.858;2023-03-31T00:38:44;32.32;30.36;34.81;;
69609;Laerm;56815;52.320;4.858;2023-03-31T00:38:55;32.03;29.68;33.98;;
69609;Laerm;56815;52.320;4.858;2023-03-31T00:39:08;32.53;30.23;36.84;;
69609;Laerm;56815;52.320;4.858;2023-03-31T00:39:18;33.13;30.71;35.39;;
69609;Laerm;56815;52.320;4.858;2023-03-31T00:39:29;33.06;31.03;34.62;;
69609;Laerm;56815;52.320;4.858;2023-03-31T00:39:41;31.72;29.89;34.04;;
69609;Laerm;56815;52.320;4.858;2023-03-31T00:39:52;31.66;29.70;34.49;;
69609;Laerm;56815;52.320;4.858;2023-03-31T00:40:02;31.74;30.16;33.96;;
69609;Laerm;56815;52.320;4.858;2023-03-31T00:40:18;31.70;30.07;33.67;;
69609;Laerm;56815;52.320;4.858;2023-03-31T00:40:29;31.67;29.93;33.22;;
69609;Laerm;56815;52.320;4.858;2023-03-31T00:40:43;31.18;29.27;33.82;;
69609;Laerm;56815;52.320;4.858;2023-03-31T00:40:54;30.94;29.32;32.96;;
69609;Laerm;56815;52.320;4.858;2023-03-31T00:41:05;30.93;29.29;32.67;;
69609;Laerm;56815;52.320;4.858;2023-03-31T00:41:15;31.73;29.63;33.91;;
69609;Laerm;56815;52.320;4.858;2023-03-31T00:41:27;32.80;30.50;35.19;;
69609;Laerm;56815;52.320;4.858;2023-03-31T00:41:37;32.31;30.48;34.32;;
69609;Laerm;56815;52.320;4.858;2023-03-31T00:41:48;31.36;29.58;33.62;;
69609;Laerm;56815;52.320;4.858;2023-03-31T00:41:58;31.07;29.65;33.09;;
69609;Laerm;56815;52.320;4.858;2023-03-31T00:42:11;31.38;29.82;34.28;;
69609;Laerm;56815;52.320;4.858;2023-03-31T00:42:24;32.57;30.15;37.34;;
69609;Laerm;56815;52.320;4.858;2023-03-31T00:42:38;31.87;29.21;35.86;;
69609;Laerm;56815;52.320;4.858;2023-03-31T00:42:48;32.02;29.72;34.10;;
69609;Laerm;56815;52.320;4.858;2023-03-31T00:42:59;31.96;29.90;34.74;;
69609;Laerm;56815;52.320;4.858;2023-03-31T00:43:12;31.85;30.07;33.68;;
69609;Laerm;56815;52.320;4.858;2023-03-31T00:43:34;32.09;29.97;35.04;;
69609;Laerm;56815;52.320;4.858;2023-03-31T00:44:18;30.95;29.14;33.99;;
69609;Laerm;56815;52.320;4.858;2023-03-31T00:44:31;31.34;29.71;35.19;;
69609;Laerm;56815;52.320;4.858;2023-03-31T00:45:24;31.96;30.12;37.21;;
69609;Laerm;56815;52.320;4.858;2023-03-31T00:45:36;31.67;29.46;34.83;;
69609;Laerm;56815;52.320;4.858;2023-03-31T00:45:46;33.46;31.18;36.14;;
69609;Laerm;56815;52.320;4.858;2023-03-31T00:45:59;33.05;30.98;35.20;;
69609;Laerm;56815;52.320;4.858;2023-03-31T00:46:15;31.89;29.82;35.21;;
69609;Laerm;56815;52.320;4.858;2023-03-31T00:46:29;31.85;29.76;33.67;;
69609;Laerm;56815;52.320;4.858;2023-03-31T00:46:43;31.66;30.25;33.57;;
69609;Laerm;56815;52.320;4.858;2023-03-31T00:47:14;31.56;29.87;33.35;;
69609;Laerm;56815;52.320;4.858;2023-03-31T00:47:27;31.77;29.78;37.59;;
69609;Laerm;56815;52.320;4.858;2023-03-31T00:47:42;32.10;30.41;34.95;;
69609;Laerm;56815;52.320;4.858;2023-03-31T00:47:56;32.47;30.27;34.99;;
69609;Laerm;56815;52.320;4.858;2023-03-31T00:48:14;32.57;30.55;34.94;;
69609;Laerm;56815;52.320;4.858;2023-03-31T00:48:26;32.54;30.20;35.66;;
69609;Laerm;56815;52.320;4.858;2023-03-31T00:48:36;32.23;30.05;34.09;;
69609;Laerm;56815;52.320;4.858;2023-03-31T00:48:49;32.09;30.12;33.83;;
69609;Laerm;56815;52.320;4.858;2023-03-31T00:49:00;32.27;30.08;34.17;;
69609;Laerm;56815;52.320;4.858;2023-03-31T00:49:13;32.00;29.83;34.41;;
69609;Laerm;56815;52.320;4.858;2023-03-31T00:49:35;31.33;29.49;33.59;;
69609;Laerm;56815;52.320;4.858;2023-03-31T00:49:49;31.44;29.52;33.49;;
69609;Laerm;56815;52.320;4.858;2023-03-31T00:50:03;30.92;29.29;33.04;;
69609;Laerm;56815;52.320;4.858;2023-03-31T00:50:14;30.77;29.63;32.58;;
69609;Laerm;56815;52.320;4.858;2023-03-31T00:50:29;31.72;29.81;33.57;;
69609;Laerm;56815;52.320;4.858;2023-03-31T00:50:41;31.01;29.36;33.04;;
69609;Laerm;56815;52.320;4.858;2023-03-31T00:50:55;30.95;29.29;32.91;;
69609;Laerm;56815;52.320;4.858;2023-03-31T00:51:06;31.49;29.76;33.41;;
69609;Laerm;56815;52.320;4.858;2023-03-31T00:51:17;31.84;29.32;34.64;;
69609;Laerm;56815;52.320;4.858;2023-03-31T00:51:30;31.61;29.88;34.17;;
69609;Laerm;56815;52.320;4.858;2023-03-31T00:51:42;31.21;29.72;32.76;;
69609;Laerm;56815;52.320;4.858;2023-03-31T00:51:56;30.71;29.23;33.48;;
69609;Laerm;56815;52.320;4.858;2023-03-31T00:52:16;31.06;29.33;33.95;;
69609;Laerm;56815;52.320;4.858;2023-03-31T00:52:32;32.50;30.21;38.87;;
69609;Laerm;56815;52.320;4.858;2023-03-31T00:52:46;31.23;29.55;32.90;;
69609;Laerm;56815;52.320;4.858;2023-03-31T00:53:05;31.81;29.71;34.75;;
69609;Laerm;56815;52.320;4.858;2023-03-31T00:53:17;32.07;29.65;34.44;;
69609;Laerm;56815;52.320;4.858;2023-03-31T00:53:29;31.73;29.55;34.23;;
69609;Laerm;56815;52.320;4.858;2023-03-31T00:53:41;31.39;29.99;33.10;;
69609;Laerm;56815;52.320;4.858;2023-03-31T00:53:52;32.91;30.90;35.35;;
69609;Laerm;56815;52.320;4.858;2023-03-31T00:54:06;32.58;30.80;35.03;;
69609;Laerm;56815;52.320;4.858;2023-03-31T00:54:17;32.11;30.44;34.10;;
69609;Laerm;56815;52.320;4.858;2023-03-31T00:54:29;32.34;30.20;34.57;;
69609;Laerm;56815;52.320;4.858;2023-03-31T00:54:42;33.26;30.48;36.84;;
69609;Laerm;56815;52.320;4.858;2023-03-31T00:54:54;31.89;30.25;34.28;;
69609;Laerm;56815;52.320;4.858;2023-03-31T00:55:07;31.54;30.19;33.32;;
69609;Laerm;56815;52.320;4.858;2023-03-31T00:55:20;31.70;30.07;33.13;;
69609;Laerm;56815;52.320;4.858;2023-03-31T00:55:33;31.38;29.84;34.42;;
69609;Laerm;56815;52.320;4.858;2023-03-31T00:55:47;31.72;30.10;34.22;;
69609;Laerm;56815;52.320;4.858;2023-03-31T00:56:01;31.56;29.63;33.56;;
69609;Laerm;56815;52.320;4.858;2023-03-31T00:56:14;31.77;29.64;33.60;;
69609;Laerm;56815;52.320;4.858;2023-03-31T00:56:25;32.06;30.19;33.92;;
69609;Laerm;56815;52.320;4.858;2023-03-31T00:56:39;32.03;30.14;33.98;;
69609;Laerm;56815;52.320;4.858;2023-03-31T00:56:50;31.94;29.93;34.46;;
69609;Laerm;56815;52.320;4.858;2023-03-31T00:57:04;31.38;29.54;32.92;;
69609;Laerm;56815;52.320;4.858;2023-03-31T00:57:15;30.89;29.17;33.35;;
69609;Laerm;56815;52.320;4.858;2023-03-31T00:57:26;31.38;29.57;33.11;;
69609;Laerm;56815;52.320;4.858;2023-03-31T00:57:37;31.25;29.75;32.81;;
69609;Laerm;56815;52.320;4.858;2023-03-31T00:57:49;31.58;29.76;33.95;;
69609;Laerm;56815;52.320;4.858;2023-03-31T00:58:02;31.50;29.63;33.39;;
69609;Laerm;56815;52.320;4.858;2023-03-31T00:58:16;31.40;29.76;33.18;;
69609;Laerm;56815;52.320;4.858;2023-03-31T00:58:29;31.47;29.71;33.48;;
69609;Laerm;56815;52.320;4.858;2023-03-31T00:58:42;31.94;30.15;34.40;;
69609;Laerm;56815;52.320;4.858;2023-03-31T00:58:54;32.03;30.30;36.50;;
69609;Laerm;56815;52.320;4.858;2023-03-31T00:59:08;32.31;30.59;35.96;;
69609;Laerm;56815;52.320;4.858;2023-03-31T00:59:19;31.79;29.86;34.32;;
69609;Laerm;56815;52.320;4.858;2023-03-31T00:59:39;32.36;29.62;33.82;;
69609;Laerm;56815;52.320;4.858;2023-03-31T00:59:52;36.18;30.21;48.41;;
69609;Laerm;56815;52.320;4.858;2023-03-31T01:00:09;32.18;30.45;35.12;;
69609;Laerm;56815;52.320;4.858;2023-03-31T01:00:25;32.83;30.59;34.76;;
69609;Laerm;56815;52.320;4.858;2023-03-31T01:00:36;32.36;30.05;34.94;;
69609;Laerm;56815;52.320;4.858;2023-03-31T01:00:46;32.52;30.29;34.82;;
69609;Laerm;56815;52.320;4.858;2023-03-31T01:00:58;32.74;30.88;34.60;;
69609;Laerm;56815;52.320;4.858;2023-03-31T01:01:10;32.20;30.48;34.98;;
69609;Laerm;56815;52.320;4.858;2023-03-31T01:01:23;31.52;29.68;33.87;;
69609;Laerm;56815;52.320;4.858;2023-03-31T01:01:33;31.89;29.96;34.66;;
69609;Laerm;56815;52.320;4.858;2023-03-31T01:01:45;32.89;30.51;35.40;;
69609;Laerm;56815;52.320;4.858;2023-03-31T01:01:57;33.32;30.65;35.99;;
69609;Laerm;56815;52.320;4.858;2023-03-31T01:02:11;32.64;30.70;34.61;;
69609;Laerm;56815;52.320;4.858;2023-03-31T01:02:22;32.57;30.43;34.84;;
69609;Laerm;56815;52.320;4.858;2023-03-31T01:02:34;32.68;31.22;35.02;;
69609;Laerm;56815;52.320;4.858;2023-03-31T01:02:54;32.64;30.76;34.91;;
69609;Laerm;56815;52.320;4.858;2023-03-31T01:03:08;33.60;31.49;37.45;;
69609;Laerm;56815;52.320;4.858;2023-03-31T01:03:19;34.08;31.65;36.99;;
69609;Laerm;56815;52.320;4.858;2023-03-31T01:03:31;33.10;30.60;35.82;;
69609;Laerm;56815;52.320;4.858;2023-03-31T01:03:42;32.00;30.20;34.61;;
69609;Laerm;56815;52.320;4.858;2023-03-31T01:03:55;32.66;30.10;36.51;;
69609;Laerm;56815;52.320;4.858;2023-03-31T01:04:06;32.41;30.31;36.34;;
69609;Laerm;56815;52.320;4.858;2023-03-31T01:04:18;31.91;30.26;33.90;;
69609;Laerm;56815;52.320;4.858;2023-03-31T01:04:33;32.34;30.82;37.47;;
69609;Laerm;56815;52.320;4.858;2023-03-31T01:04:45;32.82;31.09;35.60;;
69609;Laerm;56815;52.320;4.858;2023-03-31T01:04:59;33.78;31.70;37.07;;
69609;Laerm;56815;52.320;4.858;2023-03-31T01:05:11;35.06;32.66;41.82;;
69609;Laerm;56815;52.320;4.858;2023-03-31T01:05:22;34.84;33.40;38.75;;
69609;Laerm;56815;52.320;4.858;2023-03-31T01:05:35;34.59;32.76;37.46;;
69609;Laerm;56815;52.320;4.858;2023-03-31T01:05:48;33.72;31.87;37.43;;
69609;Laerm;56815;52.320;4.858;2023-03-31T01:06:03;32.81;30.68;34.66;;
69609;Laerm;56815;52.320;4.858;2023-03-31T01:06:14;32.79;30.76;34.87;;
69609;Laerm;56815;52.320;4.858;2023-03-31T01:06:25;31.77;30.12;34.60;;
69609;Laerm;56815;52.320;4.858;2023-03-31T01:06:43;31.63;29.91;33.46;;
69609;Laerm;56815;52.320;4.858;2023-03-31T01:06:58;32.56;29.80;35.02;;
69609;Laerm;56815;52.320;4.858;2023-03-31T01:07:13;32.16;30.13;34.48;;
69609;Laerm;56815;52.320;4.858;2023-03-31T01:07:27;32.20;30.04;43.95;;
69609;Laerm;56815;52.320;4.858;2023-03-31T01:07:41;34.36;31.28;42.66;;
69609;Laerm;56815;52.320;4.858;2023-03-31T01:07:52;35.65;33.51;39.32;;
69609;Laerm;56815;52.320;4.858;2023-03-31T01:08:03;33.68;31.35;37.88;;
69609;Laerm;56815;52.320;4.858;2023-03-31T01:08:15;32.49;30.43;35.63;;
69609;Laerm;56815;52.320;4.858;2023-03-31T01:08:27;33.91;30.75;37.51;;
69609;Laerm;56815;52.320;4.858;2023-03-31T01:08:37;34.61;32.27;36.51;;
69609;Laerm;56815;52.320;4.858;2023-03-31T01:08:49;34.07;31.26;36.56;;